Time;durP1;ratioP1;P1;durP2;ratioP2;P2;SDS_P1;SDS_P2;PMS_P1;PMS_P2;Temp;Humidity;BMP_temperature;BMP_pressure;BME280_temperature;BME280_humidity;BME280_pressure;Samples;Min_cycle;Max_cycle;Signal;HPM_P1;HPM_P2
2022/09/30 00:02:03;;;;;;;29.27;20.42;;;8.80;1.00;;;9.28;100.00;98564.94;5037958;27;129830;-76
2022/09/30 00:04:32;;;;;;;31.38;21.65;;;8.80;1.00;;;9.22;100.00;98566.22;5030444;27;129923;-76
2022/09/30 00:07:02;;;;;;;34.00;22.15;;;8.70;1.00;;;9.17;100.00;98574.53;5065443;27;119823;-77
2022/09/30 00:09:31;;;;;;;28.83;20.33;;;8.70;1.00;;;9.13;100.00;98579.00;5047743;27;119568;-75
2022/09/30 00:12:00;;;;;;;32.60;21.65;;;8.60;1.00;;;9.08;100.00;98566.44;5047115;27;129621;-77
2022/09/30 00:14:28;;;;;;;30.33;21.67;;;8.60;1.00;;;9.07;100.00;98577.59;5030567;27;132393;-75
2022/09/30 00:16:58;;;;;;;27.08;18.80;;;8.50;1.00;;;9.08;100.00;98581.91;5065992;27;119238;-76
2022/09/30 00:19:27;;;;;;;33.13;22.48;;;8.50;1.00;;;9.05;100.00;98583.34;5065808;27;120284;-76
2022/09/30 00:22:00;;;;;;;31.42;21.05;;;8.40;1.00;;;9.01;100.00;98585.13;5043416;27;130316;-76
2022/09/30 00:24:31;;;;;;;33.70;22.65;;;8.30;1.00;;;8.96;100.00;98591.50;5061342;27;129372;-76
2022/09/30 00:27:01;;;;;;;31.75;21.45;;;8.30;1.00;;;8.88;100.00;98592.31;5044777;27;119969;-75
2022/09/30 00:29:30;;;;;;;29.70;20.23;;;8.30;1.00;;;8.89;100.00;98595.81;5047448;27;118832;-76
2022/09/30 00:31:59;;;;;;;31.63;21.00;;;8.30;1.00;;;8.86;100.00;98605.34;5061666;27;130070;-76
2022/09/30 00:34:29;;;;;;;29.73;20.40;;;8.30;1.00;;;8.82;100.00;98609.84;5044828;27;129169;-75
2022/09/30 00:37:01;;;;;;;35.92;22.48;;;8.30;1.00;;;8.81;100.00;98613.66;5063428;27;119422;-75
2022/09/30 00:39:32;;;;;;;32.45;21.77;;;8.30;1.00;;;8.85;100.00;98617.31;5045790;27;119758;-79
2022/09/30 00:42:03;;;;;;;25.33;18.75;;;8.20;1.00;;;8.90;100.00;98614.44;5062546;27;130786;-74
2022/09/30 00:44:54;;;;;;;26.15;19.30;;;8.20;1.00;;;8.91;100.00;98626.84;5062290;27;129977;-77
2022/09/30 00:47:45;;;;;;;32.70;21.20;;;8.20;1.00;;;8.92;100.00;98633.84;5045548;27;121449;-74
2022/09/30 00:50:33;;;;;;;31.23;21.75;;;8.20;1.00;;;8.91;100.00;98640.38;5063433;27;122554;-75
2022/09/30 00:53:14;;;;;;;33.20;22.05;;;8.20;1.00;;;8.92;100.00;98639.25;5061163;27;129653;-75
2022/09/30 00:55:56;;;;;;;33.03;21.40;;;8.20;1.00;;;8.92;100.00;98647.38;5064892;27;132893;-75
2022/09/30 00:58:30;;;;;;;32.05;20.75;;;8.20;1.00;;;8.91;100.00;98648.50;5061857;27;120347;-74
2022/09/30 01:01:01;;;;;;;31.17;21.65;;;8.20;1.00;;;8.84;100.00;98659.00;5030216;27;118964;-75
2022/09/30 01:03:32;;;;;;;31.77;22.17;;;8.20;1.00;;;8.74;100.00;98653.91;5042857;27;130650;-74
2022/09/30 01:06:03;;;;;;;30.92;21.85;;;8.10;1.00;;;8.60;100.00;98635.97;5066905;27;102877;-77
2022/09/30 01:08:43;;;;;;;32.30;21.60;;;8.10;1.00;;;8.56;100.00;98648.50;5062080;27;120959;-76
2022/09/30 01:11:13;;;;;;;34.25;22.55;;;8.10;1.00;;;8.54;100.00;98644.53;5030917;27;119126;-76
2022/09/30 01:13:49;;;;;;;31.48;20.70;;;8.00;1.00;;;8.50;100.00;98638.97;5027647;27;129496;-76
2022/09/30 01:16:47;;;;;;;34.70;21.47;;;8.00;1.00;;;8.38;100.00;98639.59;5046616;27;129178;-76
2022/09/30 01:19:43;;;;;;;34.42;22.58;;;7.90;1.00;;;8.31;100.00;98635.78;5046181;27;119698;-76
2022/09/30 01:22:29;;;;;;;32.55;21.73;;;7.80;1.00;;;8.23;100.00;98635.44;5044061;27;119093;-77
2022/09/30 01:25:54;;;;;;;30.40;19.17;;;7.70;1.00;;;8.13;100.00;98646.53;5042858;27;130852;-76
2022/09/30 01:29:10;;;;;;;28.40;18.80;;;7.60;1.00;;;8.07;100.00;98655.91;5046594;27;129075;-75
2022/09/30 01:31:58;;;;;;;33.10;19.92;;;7.40;1.00;;;7.97;100.00;98656.22;5046659;27;119581;-76
2022/09/30 01:34:42;;;;;;;33.10;21.75;;;7.30;1.00;;;7.86;100.00;98651.09;5046589;27;119126;-76
2022/09/30 01:37:21;;;;;;;31.15;21.30;;;7.20;1.00;;;7.70;100.00;98655.34;5047542;27;129995;-76
2022/09/30 01:39:58;;;;;;;38.72;21.50;;;7.20;1.00;;;7.56;100.00;98656.25;5031227;27;130186;-77
2022/09/30 01:42:41;;;;;;;37.03;22.75;;;7.20;1.00;;;7.50;100.00;98651.31;5043943;27;121766;-76
2022/09/30 01:45:16;;;;;;;39.13;22.33;;;7.10;1.00;;;7.43;100.00;98657.13;5013978;27;120997;-76
2022/09/30 01:47:58;;;;;;;56.03;22.25;;;7.00;1.00;;;7.25;100.00;98666.28;5029291;27;130497;-77
2022/09/30 01:50:40;;;;;;;35.15;19.88;;;6.90;1.00;;;7.11;100.00;98667.16;5064164;27;129283;-76
2022/09/30 01:53:19;;;;;;;35.70;21.35;;;6.80;1.00;;;7.10;100.00;98673.63;5042498;27;119930;-76
2022/09/30 01:55:55;;;;;;;32.03;20.20;;;6.70;1.00;;;7.06;100.00;98669.16;4996840;27;119475;-77
2022/09/30 01:58:30;;;;;;;;;;;6.50;1.00;;;6.94;100.00;98677.84;5009959;27;129467;-76
2022/09/30 02:01:02;;;;;;;32.15;19.95;;;6.50;1.00;;;6.91;100.00;98683.84;5061558;27;129562;-76
2022/09/30 02:03:37;;;;;;;35.78;19.85;;;6.40;1.00;;;6.86;100.00;98678.56;5060857;27;119674;-76
2022/09/30 02:06:12;;;;;;;32.70;20.30;;;6.30;1.00;;;6.83;100.00;98686.16;5061368;27;119842;-78
2022/09/30 02:08:47;;;;;;;40.00;21.90;;;6.30;1.00;;;6.76;100.00;98688.50;5044182;27;129325;-76
2022/09/30 02:11:24;;;;;;;47.58;22.42;;;6.30;1.00;;;6.70;100.00;98678.13;5060507;27;130165;-76
2022/09/30 02:13:59;;;;;;;45.40;22.17;;;6.20;1.00;;;6.62;100.00;98685.84;5046003;27;119443;-76
2022/09/30 02:16:39;;;;;;;38.63;20.92;;;6.10;1.00;;;6.61;100.00;98681.56;5027242;27;119578;-77
2022/09/30 02:19:19;;;;;;;38.35;21.10;;;6.00;1.00;;;6.58;100.00;98676.78;5062116;27;129874;-80
2022/09/30 02:21:56;;;;;;;30.73;19.52;;;6.00;1.00;;;6.58;100.00;98686.78;5060512;27;129309;-75
2022/09/30 02:24:28;;;;;;;38.95;21.90;;;6.00;1.00;;;6.55;100.00;98679.28;5064424;27;119741;-78
2022/09/30 02:27:01;;;;;;;37.03;20.40;;;5.90;1.00;;;6.45;100.00;98683.00;5026687;27;120117;-75
2022/09/30 02:29:35;;;;;;;36.10;20.63;;;5.90;1.00;;;6.34;100.00;98685.13;5045417;27;129555;-76
2022/09/30 02:32:10;;;;;;;33.70;18.77;;;5.80;1.00;;;6.35;100.00;98704.81;5042575;27;128852;-76
2022/09/30 02:34:45;;;;;;;44.83;21.20;;;5.80;1.00;;;6.34;100.00;98708.59;5060339;27;121900;-76
2022/09/30 02:37:21;;;;;;;42.33;19.57;;;5.80;1.00;;;6.29;100.00;98706.78;5047478;27;121187;-75
2022/09/30 02:39:57;;;;;;;62.53;21.52;;;5.70;1.00;;;6.20;100.00;98703.22;5025423;27;130847;-75
2022/09/30 02:42:29;;;;;;;84.37;20.70;;;5.70;1.00;;;6.00;100.00;98701.72;5025456;27;129728;-76
2022/09/30 02:45:07;;;;;;;58.80;19.35;;;5.60;1.00;;;5.76;100.00;98700.84;5022640;27;121825;-76
2022/09/30 02:47:52;;;;;;;70.05;20.75;;;5.60;1.00;;;5.69;100.00;98697.72;5044071;27;119236;-78
2022/09/30 02:50:31;;;;;;;42.03;19.83;;;5.50;1.00;;;5.71;100.00;98708.19;5031635;27;131394;-75
2022/09/30 02:53:15;;;;;;;49.55;19.25;;;5.40;1.00;;;5.75;100.00;98693.84;5044981;27;128323;-75
2022/09/30 02:56:19;;;;;;;52.45;19.92;;;5.40;1.00;;;5.68;100.00;98698.81;5045930;27;118829;-74
2022/09/30 02:58:49;;;;;;;41.83;19.65;;;5.30;1.00;;;5.70;100.00;98712.78;5027935;27;118943;-74
2022/09/30 03:01:18;;;;;;;60.75;21.33;;;5.30;1.00;;;5.72;100.00;98713.28;5059556;27;130404;-74
2022/09/30 03:03:51;;;;;;;49.35;19.27;;;5.30;1.00;;;5.68;100.00;98698.03;5060954;27;129803;-73
2022/09/30 03:06:22;;;;;;;46.65;19.33;;;5.20;1.00;;;5.59;100.00;98700.59;5061263;27;119708;-74
2022/09/30 03:08:52;;;;;;;60.80;19.17;;;5.20;1.00;;;5.48;100.00;98693.81;5045098;27;119188;-74
2022/09/30 03:11:25;;;;;;;53.03;17.60;;;5.10;1.00;;;5.31;100.00;98695.19;5024794;27;130090;-76
2022/09/30 03:14:22;;;;;;;59.88;18.33;;;5.00;1.00;;;5.14;100.00;98694.94;5063219;27;130705;-75
2022/09/30 03:17:30;;;;;;;48.15;18.38;;;4.90;1.00;;;4.91;100.00;98689.41;5062862;27;119548;-77
2022/09/30 03:20:22;;;;;;;42.03;16.50;;;4.80;1.00;;;4.79;100.00;98691.75;5046220;27;119505;-75
2022/09/30 03:23:17;;;;;;;59.38;18.60;;;4.70;1.00;;;4.76;100.00;98695.03;5041629;27;130205;-74
2022/09/30 03:25:56;;;;;;;41.80;17.80;;;4.70;1.00;;;4.88;100.00;98703.44;5044220;27;128599;-74
2022/09/30 03:28:31;;;;;;;57.42;18.80;;;4.70;1.00;;;4.99;100.00;98694.13;5041619;27;121934;-76
2022/09/30 03:31:10;;;;;;;71.03;18.92;;;4.70;1.00;;;5.05;100.00;98700.22;5041075;27;121850;-75
2022/09/30 03:33:49;;;;;;;95.97;19.15;;;4.70;1.00;;;5.06;100.00;98704.47;5059058;27;129817;-75
2022/09/30 03:36:28;;;;;;;72.82;17.60;;;4.80;1.00;;;5.09;100.00;98709.28;5059890;27;129507;-77
2022/09/30 03:39:04;;;;;;;43.33;15.82;;;4.80;1.00;;;5.14;100.00;98711.91;5033258;27;118897;-75
2022/09/30 03:41:39;;;;;;;30.35;15.90;;;4.70;1.00;;;5.14;100.00;98711.09;5064268;27;119567;-76
2022/09/30 03:44:15;;;;;;;34.50;15.98;;;4.80;1.00;;;5.16;100.00;98715.09;5061908;27;130814;-75
2022/09/30 03:46:48;;;;;;;26.92;14.55;;;4.70;1.00;;;5.18;100.00;98722.84;5048729;27;129238;-75
2022/09/30 03:49:27;;;;;;;33.03;16.17;;;4.70;1.00;;;5.17;100.00;98718.56;5046365;27;119250;-75
2022/09/30 03:51:58;;;;;;;40.58;15.85;;;4.70;1.00;;;5.10;100.00;98727.03;5063446;27;120153;-75
2022/09/30 03:54:29;;;;;;;73.07;17.92;;;4.60;1.00;;;5.04;100.00;98726.28;5061818;27;130424;-74
2022/09/30 03:57:03;;;;;;;29.50;15.60;;;4.60;1.00;;;5.00;100.00;98732.56;5045517;27;129353;-75
2022/09/30 03:59:32;;;;;;;100.10;18.42;;;4.60;1.00;;;4.98;100.00;98735.53;5062456;27;120328;-73
2022/09/30 04:02:02;;;;;;;43.97;15.88;;;4.50;1.00;;;4.85;100.00;98731.69;5060086;27;119786;-77
2022/09/30 04:04:30;;;;;;;64.43;14.75;;;4.40;1.00;;;4.68;100.00;98737.59;5045685;27;129905;-76
2022/09/30 04:06:59;;;;;;;39.90;13.82;;;4.20;1.00;;;4.55;100.00;98726.75;5044486;27;129721;-80
2022/09/30 04:09:29;;;;;;;44.97;15.07;;;4.10;1.00;;;4.53;100.00;98739.69;5063208;27;119999;-76
2022/09/30 04:11:58;;;;;;;33.20;14.52;;;4.10;1.00;;;4.56;100.00;98745.28;5045412;27;120247;-74
2022/09/30 04:14:26;;;;;;;34.03;15.05;;;4.20;1.00;;;4.63;100.00;98744.94;5060887;27;130106;-75
2022/09/30 04:16:55;;;;;;;37.47;15.38;;;4.30;1.00;;;4.64;100.00;98751.91;5061195;27;129677;-74
2022/09/30 04:19:24;;;;;;;37.40;16.15;;;4.20;1.00;;;4.59;100.00;98757.34;5050424;27;121898;-75
2022/09/30 04:21:53;;;;;;;39.35;14.52;;;4.20;1.00;;;4.62;100.00;98762.94;5047743;27;122314;-74
2022/09/30 04:24:24;;;;;;;42.28;16.00;;;4.20;1.00;;;4.62;100.00;98765.63;5046427;27;130363;-75
2022/09/30 04:26:54;;;;;;;34.25;13.52;;;4.20;1.00;;;4.43;100.00;98764.81;5062422;27;129420;-75
2022/09/30 04:29:22;;;;;;;29.75;12.63;;;4.20;1.00;;;4.25;100.00;98772.53;5062156;27;119857;-75
2022/09/30 04:31:51;;;;;;;39.15;15.90;;;4.10;1.00;;;4.21;100.00;98782.28;5047156;27;119390;-75
2022/09/30 04:34:19;;;;;;;64.95;16.20;;;4.10;1.00;;;4.15;100.00;98788.78;5061848;27;130311;-74
2022/09/30 04:36:48;;;;;;;71.90;17.98;;;4.00;1.00;;;4.12;100.00;98800.09;5065153;27;130572;-73
2022/09/30 04:39:17;;;;;;;116.63;20.15;;;4.00;1.00;;;4.05;100.00;98802.31;5062154;27;119873;-82
2022/09/30 04:41:46;;;;;;;103.75;17.55;;;4.00;1.00;;;4.07;100.00;98800.97;5044122;27;120158;-73
2022/09/30 04:44:16;;;;;;;117.82;20.48;;;4.00;1.00;;;4.11;100.00;98803.88;5060456;27;129874;-73
2022/09/30 04:46:44;;;;;;;54.60;18.35;;;4.00;1.00;;;4.22;100.00;98805.34;5061254;27;130007;-73
2022/09/30 04:49:13;;;;;;;33.38;16.25;;;4.10;1.00;;;4.41;100.00;98809.97;5061200;27;120095;-73
2022/09/30 04:51:44;;;;;;;52.25;18.40;;;4.20;1.00;;;4.60;100.00;98816.19;5061771;27;119769;-72
2022/09/30 04:54:15;;;;;;;68.38;17.23;;;4.30;1.00;;;4.71;100.00;98816.06;5060254;27;129967;-75
2022/09/30 04:56:43;;;;;;;58.28;16.55;;;4.30;1.00;;;4.82;100.00;98822.91;5061648;27;129693;-77
2022/09/30 04:59:12;;;;;;;28.63;14.75;;;4.30;1.00;;;4.95;100.00;98814.09;5062096;27;120854;-73
2022/09/30 05:01:43;;;;;;;51.72;14.98;;;4.40;1.00;;;5.07;100.00;98812.88;5062850;27;119902;-73
2022/09/30 05:04:12;;;;;;;21.80;13.88;;;4.40;1.00;;;5.16;100.00;98816.50;5031876;27;129446;-75
2022/09/30 05:06:40;;;;;;;24.60;13.68;;;4.50;1.00;;;5.26;100.00;98816.34;5022696;28;129881;-74
2022/09/30 05:09:09;;;;;;;24.55;12.45;;;4.60;1.00;;;5.36;100.00;98826.94;5004758;28;121507;-74
2022/09/30 05:11:40;;;;;;;31.63;14.13;;;4.70;1.00;;;5.51;100.00;98833.19;5024078;27;121991;-80
2022/09/30 05:14:09;;;;;;;30.77;14.93;;;4.70;1.00;;;5.63;100.00;98836.22;5037593;27;129769;-74
2022/09/30 05:16:37;;;;;;;25.63;14.43;;;4.90;1.00;;;5.69;100.00;98835.03;5039968;27;129635;-78
2022/09/30 05:19:08;;;;;;;53.03;17.60;;;4.90;1.00;;;5.73;100.00;98841.44;5041864;27;119667;-73
2022/09/30 05:21:36;;;;;;;56.80;17.55;;;5.00;1.00;;;5.88;100.00;98847.66;5030228;27;119807;-79
2022/09/30 05:24:05;;;;;;;55.53;19.17;;;5.20;1.00;;;6.07;100.00;98844.91;5023688;27;130420;-76
2022/09/30 05:26:33;;;;;;;45.17;17.75;;;5.30;1.00;;;6.24;100.00;98853.19;5041246;27;130101;-74
2022/09/30 05:29:02;;;;;;;63.75;18.95;;;5.50;1.00;;;6.40;100.00;98858.31;5040933;27;120038;-73
2022/09/30 05:31:30;;;;;;;32.97;16.95;;;5.60;1.00;;;6.42;100.00;98856.91;5041205;27;119588;-77
2022/09/30 05:33:59;;;;;;;61.60;16.73;;;5.60;1.00;;;6.47;100.00;98856.03;5041339;27;129575;-75
2022/09/30 05:36:29;;;;;;;60.63;17.40;;;5.60;1.00;;;6.57;100.00;98858.50;5038558;27;129877;-76
2022/09/30 05:38:57;;;;;;;51.45;16.25;;;5.70;1.00;;;6.65;100.00;98871.28;5060061;27;119876;-75
2022/09/30 05:41:26;;;;;;;51.08;15.43;;;5.80;1.00;;;6.67;100.00;98873.69;5061200;27;119670;-75
2022/09/30 05:43:54;;;;;;;48.58;14.77;;;5.80;1.00;;;6.69;100.00;98871.47;5061163;27;129806;-77
2022/09/30 05:46:23;;;;;;;35.00;13.73;;;5.80;1.00;;;6.62;100.00;98871.91;5060774;27;129408;-76
2022/09/30 05:48:54;;;;;;;39.85;14.05;;;5.80;1.00;;;6.60;100.00;98865.19;5063308;27;119547;-83
2022/09/30 05:51:23;;;;;;;27.17;13.98;;;5.80;1.00;;;6.63;100.00;98870.78;5063141;27;119686;-75
2022/09/30 05:53:54;;;;;;;29.40;14.02;;;5.90;1.00;;;6.71;100.00;98871.97;5059889;27;130117;-75
2022/09/30 05:56:23;;;;;;;20.60;13.32;;;6.00;1.00;;;6.79;100.00;98878.56;5062339;27;129207;-75
2022/09/30 05:58:51;;;;;;;28.00;14.75;;;6.10;1.00;;;7.00;100.00;98884.34;5045521;27;121054;-75
2022/09/30 06:01:20;;;;;;;24.60;14.65;;;6.30;1.00;;;7.12;100.00;98884.63;5063164;27;121806;-76
2022/09/30 06:03:49;;;;;;;25.30;16.50;;;6.30;1.00;;;7.28;100.00;98886.97;5062506;27;128757;-74
2022/09/30 06:06:20;;;;;;;24.10;15.63;;;6.40;1.00;;;7.43;100.00;98894.72;5059399;27;130810;-77
2022/09/30 06:08:49;;;;;;;26.08;18.27;;;6.50;1.00;;;7.53;100.00;98897.19;5058465;27;119068;-76
2022/09/30 06:11:23;;;;;;;39.72;26.48;;;6.60;1.00;;;7.62;100.00;98891.88;5040643;27;119842;-76
2022/09/30 06:13:52;;;;;;;29.55;21.45;;;6.70;1.00;;;7.88;100.00;98894.75;5040469;27;130909;-77
2022/09/30 06:16:22;;;;;;;23.13;17.50;;;7.00;1.00;;;8.00;100.00;98890.69;5040277;27;129597;-75
2022/09/30 06:18:51;;;;;;;25.25;18.40;;;7.00;1.00;;;8.07;100.00;98886.44;5031466;27;119216;-74
2022/09/30 06:21:21;;;;;;;21.08;16.55;;;7.10;1.00;;;8.29;100.00;98903.72;5035393;27;119445;-72
2022/09/30 06:23:50;;;;;;;26.58;17.50;;;7.30;1.00;;;8.54;100.00;98894.16;5018361;28;129767;-73
2022/09/30 06:26:20;;;;;;;26.33;17.80;;;7.50;1.00;;;8.75;100.00;98898.97;5020919;28;130078;-74
2022/09/30 06:28:50;;;;;;;23.42;16.67;;;7.60;1.00;;;9.00;100.00;98895.53;5018808;28;119613;-74
2022/09/30 06:31:19;;;;;;;21.98;16.25;;;7.80;1.00;;;9.18;100.00;98903.72;5020528;28;120139;-71
2022/09/30 06:33:52;;;;;;;22.00;15.20;;;7.90;1.00;;;9.25;100.00;98903.22;5019882;28;129977;-72
2022/09/30 06:36:20;;;;;;;21.67;15.18;;;7.90;1.00;;;9.34;100.00;98898.63;5021881;27;129539;-72
2022/09/30 06:38:53;;;;;;;22.38;16.05;;;7.70;1.00;;;9.29;100.00;98906.91;5040431;27;120018;-72
2022/09/30 06:41:24;;;;;;;25.08;16.08;;;7.80;1.00;;;9.27;100.00;98909.13;5042768;27;118420;-71
2022/09/30 06:43:53;;;;;;;21.52;15.38;;;7.90;1.00;;;9.22;100.00;98912.78;5041740;27;129945;-71
2022/09/30 06:46:23;;;;;;;21.77;15.40;;;8.00;1.00;;;9.24;100.00;98904.34;5042506;27;129745;-71
2022/09/30 06:48:55;;;;;;;20.90;15.45;;;8.10;1.00;;;9.41;100.00;98903.56;5039703;27;122049;-71
2022/09/30 06:51:25;;;;;;;24.77;16.27;;;8.20;1.00;;;9.61;100.00;98907.53;5039930;27;121924;-71
2022/09/30 06:53:54;;;;;;;22.33;16.25;;;8.30;1.00;;;9.29;100.00;98904.97;5039368;27;129993;-71
2022/09/30 06:56:24;;;;;;;25.52;17.70;;;8.10;1.00;;;8.99;100.00;98910.19;5039415;27;129513;-70
2022/09/30 06:58:55;;;;;;;20.55;15.15;;;8.00;1.00;;;9.15;100.00;98921.38;5039671;27;119721;-70
2022/09/30 07:01:24;;;;;;;17.60;12.65;;;8.20;1.00;;;8.93;100.00;98919.56;5039079;27;119670;-70
2022/09/30 07:03:56;;;;;;;18.58;13.10;;;8.10;1.00;;;9.06;100.00;98923.25;5045101;27;129919;-73
2022/09/30 07:06:26;;;;;;;21.35;15.32;;;8.30;1.00;;;9.27;100.00;98919.94;5060435;27;129842;-70
2022/09/30 07:08:55;;;;;;;21.83;14.60;;;8.50;99.90;;;9.61;100.00;98932.72;5044604;27;119847;-70
2022/09/30 07:11:26;;;;;;;35.00;23.77;;;8.70;99.90;;;9.94;100.00;98931.41;5059275;27;120432;-70
2022/09/30 07:13:54;;;;;;;26.60;18.20;;;8.90;99.90;;;10.13;100.00;98931.06;5059297;27;130022;-75
2022/09/30 07:16:24;;;;;;;33.13;23.17;;;9.00;99.90;;;10.44;100.00;98925.47;5060249;27;130066;-70
2022/09/30 07:18:53;;;;;;;24.83;17.80;;;9.10;99.90;;;10.61;100.00;98930.00;5060116;27;120657;-70
2022/09/30 07:21:21;;;;;;;25.58;18.35;;;9.20;99.90;;;10.68;100.00;98924.88;5046326;27;120676;-71
2022/09/30 07:23:51;;;;;;;23.98;17.73;;;9.40;99.90;;;10.65;100.00;98928.25;5060606;27;130251;-71
2022/09/30 07:26:23;;;;;;;24.20;18.30;;;9.40;99.90;;;10.59;100.00;98934.97;5055509;27;131352;-70
2022/09/30 07:28:53;;;;;;;22.17;18.58;;;9.50;99.90;;;10.71;100.00;98943.22;5053301;27;119941;-71
2022/09/30 07:31:24;;;;;;;24.58;19.08;;;9.60;99.90;;;10.85;100.00;98951.13;5060117;27;119641;-71
2022/09/30 07:33:54;;;;;;;23.73;17.38;;;9.70;99.90;;;11.15;100.00;98951.94;5059036;27;130403;-72
2022/09/30 07:36:28;;;;;;;27.38;20.08;;;10.00;99.90;;;11.49;100.00;98950.13;5057729;27;129646;-72
2022/09/30 07:38:58;;;;;;;23.73;16.33;;;10.30;99.90;;;11.82;100.00;98962.97;5057931;27;122168;-72
2022/09/30 07:41:28;;;;;;;19.80;14.50;;;10.50;99.90;;;12.07;100.00;98952.22;5059312;27;121824;-71
2022/09/30 07:43:58;;;;;;;19.35;14.20;;;10.70;99.90;;;12.11;98.38;98963.25;5044445;27;129689;-75
2022/09/30 07:46:30;;;;;;;20.88;14.20;;;10.50;99.90;;;12.33;99.15;98975.69;5043957;27;128641;-72
2022/09/30 07:49:02;;;;;;;22.48;13.75;;;10.80;99.90;;;12.45;96.10;98978.44;5044379;27;119839;-72
2022/09/30 07:51:34;;;;;;;20.63;12.80;;;10.90;99.90;;;12.63;95.93;98983.69;5059327;27;119677;-73
2022/09/30 07:54:05;;;;;;;19.63;13.13;;;11.10;99.90;;;12.80;95.75;98988.91;5027366;27;129825;-72
2022/09/30 07:56:37;;;;;;;19.55;13.32;;;11.20;99.90;;;12.83;93.26;98987.47;5059567;27;129769;-73
2022/09/30 07:59:07;;;;;;;24.27;14.45;;;11.10;99.90;;;12.87;94.13;98993.81;5027153;27;118499;-73
2022/09/30 08:01:36;;;;;;;18.95;13.77;;;11.10;99.90;;;12.67;95.25;99001.72;5059456;27;119899;-73
2022/09/30 08:04:08;;;;;;;22.60;14.13;;;11.10;99.90;;;12.73;93.02;98999.56;5058797;27;130420;-73
2022/09/30 08:06:39;;;;;;;18.98;14.20;;;11.20;99.90;;;12.91;94.61;98998.22;5059023;27;129656;-75
2022/09/30 08:09:09;;;;;;;20.10;13.82;;;11.40;99.90;;;13.13;93.29;99004.38;5026647;27;119459;-71
2022/09/30 08:11:40;;;;;;;20.77;13.95;;;11.60;99.90;;;13.27;88.72;99002.09;5059265;27;119446;-71
2022/09/30 08:14:15;;;;;;;18.38;14.00;;;11.60;74.90;;;13.29;86.90;99001.75;5043815;27;130153;-76
2022/09/30 08:16:44;;;;;;;20.38;14.13;;;11.70;56.90;;;13.45;87.92;99016.31;5058837;27;129510;-75
2022/09/30 08:19:16;;;;;;;20.65;13.98;;;11.90;56.60;;;13.62;85.03;99012.56;5058943;27;119671;-72
2022/09/30 08:21:45;;;;;;;19.60;14.02;;;11.90;39.70;;;13.78;83.87;99009.13;5059559;27;119452;-72
2022/09/30 08:24:14;;;;;;;17.85;13.15;;;12.10;27.60;;;13.87;80.87;99015.22;5060218;27;130363;-73
2022/09/30 08:26:43;;;;;;;17.63;13.48;;;11.90;8.60;;;13.78;81.83;99009.13;5062779;27;129893;-73
2022/09/30 08:29:14;;;;;;;17.42;13.20;;;12.00;14.00;;;13.93;81.48;99010.31;5061408;27;122056;-70
2022/09/30 08:31:42;;;;;;;18.92;12.73;;;12.30;1.00;;;14.14;83.66;99010.13;5062280;27;121797;-73
2022/09/30 08:34:11;;;;;;;16.30;12.80;;;12.60;18.70;;;14.42;83.46;99010.13;5062954;27;130175;-71
2022/09/30 08:36:46;;;;;;;17.23;12.65;;;12.90;12.50;;;14.66;79.88;99006.50;5063559;27;129796;-71
2022/09/30 08:39:14;;;;;;;15.25;11.75;;;13.10;1.00;;;14.78;75.45;99015.75;5062414;27;119834;-71
2022/09/30 08:42:12;;;;;;;17.70;13.10;;;13.00;1.00;;;14.73;75.18;99001.22;5060867;27;120000;-72
2022/09/30 08:44:45;;;;;;;16.55;11.02;;;12.90;1.00;;;14.70;72.65;99001.91;5061581;27;129589;-72
2022/09/30 08:47:37;;;;;;;14.10;10.65;;;13.00;1.00;;;14.32;73.27;99000.50;5062196;27;129812;-70
2022/09/30 08:50:16;;;;;;;14.52;10.93;;;12.80;1.00;;;13.88;75.09;99003.16;5062317;27;119737;-71
2022/09/30 08:52:49;;;;;;;14.05;11.10;;;12.60;1.00;;;13.71;76.41;98997.97;5062209;27;119469;-71
2022/09/30 08:55:23;;;;;;;16.25;11.77;;;12.60;1.00;;;14.11;74.53;99010.81;5045187;27;128976;-71
2022/09/30 08:57:55;;;;;;;16.25;11.57;;;12.80;1.00;;;14.14;72.84;99012.88;5062180;27;130056;-71
2022/09/30 09:00:26;;;;;;;17.20;12.00;;;12.80;1.00;;;14.28;74.39;98999.59;5060890;27;119534;-71
2022/09/30 09:02:57;;;;;;;15.98;11.45;;;12.90;1.00;;;14.49;73.48;99014.97;5061737;27;121271;-72
2022/09/30 09:05:45;;;;;;;15.30;11.80;;;12.90;1.00;;;14.34;75.07;99009.13;5064307;27;129886;-71
2022/09/30 09:08:24;;;;;;;13.73;9.45;;;13.00;1.00;;;14.61;75.18;99009.47;5061614;27;129677;-71
2022/09/30 09:11:02;;;;;;;14.27;10.30;;;13.30;1.00;;;14.81;69.12;99025.97;5062016;27;119606;-72
2022/09/30 09:13:50;;;;;;;13.10;9.55;;;13.20;1.00;;;14.99;68.12;99024.50;5062433;27;119527;-71
2022/09/30 09:16:28;;;;;;;14.57;10.70;;;13.30;1.00;;;14.96;68.33;99027.94;5061185;27;130276;-72
2022/09/30 09:19:02;;;;;;;14.65;11.20;;;13.10;1.00;;;14.89;70.12;99020.34;5061648;27;129429;-71
2022/09/30 09:21:49;;;;;;;17.02;10.95;;;13.00;1.00;;;15.07;70.38;99034.44;5060513;27;122579;-71
2022/09/30 09:24:22;;;;;;;14.68;10.65;;;13.40;1.00;;;15.38;67.84;99041.06;5061672;27;122288;-73
2022/09/30 09:26:53;;;;;;;14.52;9.77;;;13.60;1.00;;;15.31;67.53;99042.81;5061429;27;130031;-70
2022/09/30 09:29:38;;;;;;;12.13;9.32;;;13.60;1.00;;;15.34;61.69;99042.09;5061160;27;130149;-71
2022/09/30 09:32:14;;;;;;;13.07;10.07;;;13.20;1.00;;;15.48;65.04;99047.13;5061788;27;119541;-71
2022/09/30 09:34:43;;;;;;;13.10;9.60;;;13.50;1.00;;;15.50;67.90;99050.28;5061424;27;120151;-74
2022/09/30 09:38:23;;;;;;;10.75;8.70;;;13.90;1.00;;;15.37;65.75;99042.19;5060890;27;129722;-72
2022/09/30 09:40:22;;;;;;;10.93;8.88;;;13.70;1.00;;;15.19;65.38;99051.91;5063068;27;129336;-72
2022/09/30 09:43:18;;;;;;;12.43;9.48;;;13.80;1.00;;;15.59;65.00;99042.69;5060592;27;120102;-74
2022/09/30 09:45:59;;;;;;;12.77;9.32;;;14.10;1.00;;;15.65;59.91;99046.72;5061251;27;119810;-71
2022/09/30 09:48:29;;;;;;;9.63;7.22;;;13.50;1.00;;;15.70;57.34;99051.91;5059804;27;130077;-76
2022/09/30 09:51:06;;;;;;;11.48;8.55;;;13.90;1.00;;;15.83;61.25;99047.13;5061068;27;130284;-76
2022/09/30 09:53:52;;;;;;;14.00;9.75;;;14.20;1.00;;;16.07;62.12;99040.63;5061982;27;119440;-77
2022/09/30 09:56:27;;;;;;;10.97;8.93;;;14.50;1.00;;;16.45;62.15;99049.97;5062600;27;119783;-77
2022/09/30 09:59:08;;;;;;;11.60;8.77;;;14.60;1.00;;;16.61;59.60;99040.88;5042665;27;130297;-76
2022/09/30 10:01:39;;;;;;;12.00;8.30;;;14.60;1.00;;;16.65;60.30;99039.78;5047455;27;129174;-75
2022/09/30 10:04:17;;;;;;;10.75;7.85;;;14.60;1.00;;;16.81;59.00;99044.38;5062852;27;120086;-77
2022/09/30 10:06:53;;;;;;;10.55;7.90;;;14.80;1.00;;;16.62;57.41;99045.22;5061677;27;119770;-76
2022/09/30 10:09:32;;;;;;;12.20;9.20;;;14.30;1.00;;;16.29;59.02;99046.53;5046156;27;129344;-78
2022/09/30 10:12:29;;;;;;;10.25;6.85;;;14.10;1.00;;;15.70;56.85;99054.66;5041991;27;130022;-75
2022/09/30 10:15:19;;;;;;;11.40;7.50;;;13.50;1.00;;;15.25;61.04;99045.84;5060119;27;121909;-77
2022/09/30 10:17:53;;;;;;;12.38;8.55;;;13.30;1.00;;;15.04;63.20;99067.94;5045943;27;121369;-73
2022/09/30 10:20:32;;;;;;;14.85;11.00;;;13.00;1.00;;;15.22;64.32;99057.47;5044814;27;129198;-75
2022/09/30 10:23:10;;;;;;;13.63;9.65;;;13.40;1.00;;;14.80;66.30;99051.69;5044202;27;129011;-76
2022/09/30 10:25:38;;;;;;;13.38;9.02;;;13.20;1.00;;;14.59;68.28;99046.44;5060451;27;119637;-79
2022/09/30 10:28:24;;;;;;;10.88;8.48;;;13.10;1.00;;;14.50;69.44;99049.31;5053039;27;119434;-76
2022/09/30 10:30:58;;;;;;;10.23;7.63;;;13.20;1.00;;;14.46;67.97;99060.16;5055817;27;130053;-76
2022/09/30 10:33:34;;;;;;;11.00;7.68;;;13.10;1.00;;;14.37;67.95;99056.78;5060555;27;129375;-74
2022/09/30 10:36:13;;;;;;;14.05;7.95;;;13.20;1.00;;;14.48;68.60;99048.88;5028216;27;119391;-74
2022/09/30 10:39:00;;;;;;;9.77;7.40;;;13.30;1.00;;;14.94;63.81;99057.53;5042586;27;119856;-75
2022/09/30 10:41:32;;;;;;;10.57;6.13;;;13.50;1.00;;;15.27;60.54;99053.69;5058782;27;130328;-77